createdAt,value
2016-11-19T00:00:00.918Z,1002.12
2016-11-19T00:01:09.550Z,1002.11
2016-11-19T00:02:18.197Z,1002.19
2016-11-19T00:03:26.827Z,1002.25
2016-11-19T00:04:35.448Z,1002.25
2016-11-19T00:05:44.077Z,1002.28
2016-11-19T00:06:52.702Z,1002.28
2016-11-19T00:08:01.349Z,1002.34
2016-11-19T00:09:09.962Z,1002.38
2016-11-19T00:10:18.579Z,1002.42
2016-11-19T00:11:27.212Z,1002.35
2016-11-19T00:12:35.853Z,1002.33
2016-11-19T00:13:44.506Z,1002.23
2016-11-19T00:14:53.164Z,1002.28
2016-11-19T00:16:02.096Z,1002.23
2016-11-19T00:17:10.743Z,1002.23
2016-11-19T00:18:19.409Z,1002.26
2016-11-19T00:19:28.035Z,1002.28
2016-11-19T00:20:36.674Z,1002.29
2016-11-19T00:21:45.308Z,1002.3
2016-11-19T00:22:53.923Z,1002.26
2016-11-19T00:24:02.545Z,1002.26
2016-11-19T00:25:11.212Z,1002.24
2016-11-19T00:26:19.850Z,1002.28
2016-11-19T00:27:28.484Z,1002.34
2016-11-19T00:28:37.093Z,1002.38
2016-11-19T00:30:43.462Z,1002.4
2016-11-19T00:31:52.070Z,1002.41
2016-11-19T00:33:00.679Z,1002.41
2016-11-19T00:34:09.274Z,1002.41
2016-11-19T00:35:17.870Z,1002.43
2016-11-19T00:36:26.466Z,1002.45
2016-11-19T00:37:35.070Z,1002.4
2016-11-19T00:38:43.660Z,1002.36
2016-11-19T00:39:52.265Z,1002.47
2016-11-19T00:41:00.850Z,1002.48
2016-11-19T00:42:09.458Z,1002.46
2016-11-19T00:43:18.068Z,1002.5
2016-11-19T00:44:26.664Z,1002.48
2016-11-19T00:45:35.261Z,1002.53
2016-11-19T00:46:43.906Z,1002.51
2016-11-19T00:47:52.503Z,1002.46
2016-11-19T00:49:01.106Z,1002.45
2016-11-19T00:50:09.720Z,1002.47
2016-11-19T00:51:18.321Z,1002.47
2016-11-19T00:52:26.927Z,1002.56
2016-11-19T00:53:35.546Z,1002.5
2016-11-19T00:54:44.191Z,1002.58
2016-11-19T00:55:52.859Z,1002.55
2016-11-19T00:57:01.479Z,1002.54
2016-11-19T00:58:10.118Z,1002.53
2016-11-19T00:59:18.773Z,1002.55
2016-11-19T01:00:27.418Z,1002.51
2016-11-19T01:01:36.040Z,1002.52
2016-11-19T01:02:44.664Z,1002.51
2016-11-19T01:03:53.285Z,1002.53
2016-11-19T01:05:01.929Z,1002.54
2016-11-19T01:06:10.559Z,1002.5
2016-11-19T01:07:19.192Z,1002.59
2016-11-19T01:08:27.814Z,1002.55
2016-11-19T01:09:36.455Z,1002.49
2016-11-19T01:10:45.069Z,1002.45
2016-11-19T01:11:53.698Z,1002.37
2016-11-19T01:13:02.323Z,1002.32
2016-11-19T01:14:10.940Z,1002.3
2016-11-19T01:15:19.843Z,1002.3
2016-11-19T01:16:28.440Z,1002.28
2016-11-19T01:17:37.058Z,1002.3
2016-11-19T01:18:45.675Z,1002.31
2016-11-19T01:19:54.275Z,1002.32
2016-11-19T01:21:02.901Z,1002.38
2016-11-19T01:22:11.526Z,1002.39
2016-11-19T01:23:20.164Z,1002.38
2016-11-19T01:24:28.805Z,1002.42
2016-11-19T01:25:37.417Z,1002.42
2016-11-19T01:26:46.056Z,1002.37
2016-11-19T01:27:54.699Z,1002.38
2016-11-19T01:29:03.372Z,1002.35
2016-11-19T01:30:11.969Z,1002.35
2016-11-19T01:31:20.590Z,1002.35
2016-11-19T01:32:29.203Z,1002.44
2016-11-19T01:33:37.813Z,1002.46
2016-11-19T01:34:46.421Z,1002.54
2016-11-19T01:35:55.032Z,1002.53
2016-11-19T01:37:03.649Z,1002.57
2016-11-19T01:38:12.297Z,1002.58
2016-11-19T01:39:20.942Z,1002.61
2016-11-19T01:40:29.563Z,1002.63
2016-11-19T01:41:38.198Z,1002.69
2016-11-19T01:42:46.798Z,1002.69
2016-11-19T01:43:55.426Z,1002.74
2016-11-19T01:45:04.041Z,1002.79
2016-11-19T01:46:12.687Z,1002.86
2016-11-19T01:47:21.353Z,1002.87
2016-11-19T01:48:29.962Z,1002.9
2016-11-19T01:49:38.583Z,1002.92
2016-11-19T01:50:47.206Z,1002.96
2016-11-19T01:51:55.841Z,1002.94
2016-11-19T01:53:04.466Z,1002.99
2016-11-19T01:54:13.364Z,1002.93
2016-11-19T01:55:21.987Z,1002.95
2016-11-19T01:56:30.597Z,1002.97
2016-11-19T01:57:39.193Z,1002.98
2016-11-19T01:58:47.839Z,1003.01
2016-11-19T01:59:56.447Z,1003.04
2016-11-19T02:01:05.064Z,1003.1
2016-11-19T02:02:13.702Z,1003.09
2016-11-19T02:03:22.306Z,1003.12
2016-11-19T02:04:30.926Z,1003.11
2016-11-19T02:05:39.551Z,1003.17
2016-11-19T02:06:48.173Z,1003.11
2016-11-19T02:07:56.793Z,1003.12
2016-11-19T02:09:05.420Z,1003.11
2016-11-19T02:10:14.062Z,1003.15
2016-11-19T02:11:22.995Z,1003.18
2016-11-19T02:12:31.630Z,1003.15
2016-11-19T02:13:40.550Z,1003.17
2016-11-19T02:14:49.164Z,1003.14
2016-11-19T02:15:57.788Z,1003.16
2016-11-19T02:17:06.441Z,1003.1
2016-11-19T02:18:15.077Z,1003.11
2016-11-19T02:19:23.724Z,1003.1
2016-11-19T02:20:32.347Z,1003.1
2016-11-19T02:21:40.991Z,1003.05
2016-11-19T02:22:49.636Z,1003.09
2016-11-19T02:23:58.261Z,1003.03
2016-11-19T02:25:06.907Z,1003
2016-11-19T02:26:15.528Z,1003.01
2016-11-19T02:27:24.167Z,1002.98
2016-11-19T02:28:32.770Z,1003
2016-11-19T02:29:41.409Z,1002.99
2016-11-19T02:30:50.010Z,1002.97
2016-11-19T02:31:58.602Z,1002.99
2016-11-19T02:33:07.252Z,1002.97
2016-11-19T02:34:15.899Z,1002.95
2016-11-19T02:35:24.540Z,1002.98
2016-11-19T02:36:33.143Z,1002.93
2016-11-19T02:37:41.761Z,1002.93
2016-11-19T02:38:50.370Z,1002.9
2016-11-19T02:39:58.987Z,1002.92
2016-11-19T02:41:07.606Z,1002.93
2016-11-19T02:42:16.246Z,1002.91
2016-11-19T02:43:24.838Z,1002.84
2016-11-19T02:44:33.438Z,1002.88
2016-11-19T02:45:42.063Z,1002.83
2016-11-19T02:46:50.684Z,1002.84
2016-11-19T02:47:59.302Z,1002.91
2016-11-19T02:49:07.944Z,1002.88
2016-11-19T02:50:16.569Z,1002.92
2016-11-19T02:51:25.210Z,1002.92
2016-11-19T02:52:33.840Z,1002.94
2016-11-19T02:53:42.790Z,1002.98
2016-11-19T02:54:51.411Z,1002.97
2016-11-19T02:56:00.028Z,1002.98
2016-11-19T02:57:08.621Z,1003
2016-11-19T02:58:17.225Z,1002.99
2016-11-19T02:59:25.843Z,1002.95
2016-11-19T03:00:34.460Z,1002.99
2016-11-19T03:01:43.105Z,1003.01
2016-11-19T03:02:51.697Z,1003.01
2016-11-19T03:04:00.305Z,1003.06
2016-11-19T03:05:08.943Z,1003.06
2016-11-19T03:06:17.568Z,1003.06
2016-11-19T03:07:26.182Z,1003.01
2016-11-19T03:08:34.804Z,1003.04
2016-11-19T03:09:43.410Z,1003.05
2016-11-19T03:10:52.026Z,1003.1
2016-11-19T03:12:00.626Z,1003.09
2016-11-19T03:13:09.249Z,1003.1
2016-11-19T03:14:17.843Z,1003.14
2016-11-19T03:15:26.459Z,1003.16
2016-11-19T03:16:35.088Z,1003.13
2016-11-19T03:17:43.712Z,1003.13
2016-11-19T03:18:52.342Z,1003.14
2016-11-19T03:20:00.971Z,1003.19
2016-11-19T03:21:09.585Z,1003.14
2016-11-19T03:22:18.207Z,1003.15
2016-11-19T03:23:26.811Z,1003.14
2016-11-19T03:24:35.428Z,1003.17
2016-11-19T03:25:44.057Z,1003.22
2016-11-19T03:26:52.666Z,1003.17
2016-11-19T03:28:01.321Z,1003.15
2016-11-19T03:29:09.940Z,1003.12
2016-11-19T03:30:18.592Z,1003.17
2016-11-19T03:31:27.212Z,1003.14
2016-11-19T03:32:35.822Z,1003.14
2016-11-19T03:33:44.448Z,1003.16
2016-11-19T03:34:53.049Z,1003.18
2016-11-19T03:36:01.672Z,1003.12
2016-11-19T03:37:10.335Z,1003.14
2016-11-19T03:38:18.952Z,1003.12
2016-11-19T03:39:27.577Z,1003.11
2016-11-19T03:40:36.223Z,1003.13
2016-11-19T03:41:44.849Z,1003.16
2016-11-19T03:42:53.471Z,1003.11
2016-11-19T03:44:02.392Z,1003.13
2016-11-19T03:45:11.003Z,1003.17
2016-11-19T03:46:19.638Z,1003.22
2016-11-19T03:47:28.278Z,1003.22
2016-11-19T03:48:36.918Z,1003.29
2016-11-19T03:49:45.550Z,1003.26
2016-11-19T03:50:54.188Z,1003.24
2016-11-19T03:52:02.867Z,1003.3
2016-11-19T03:53:11.506Z,1003.33
2016-11-19T03:54:20.134Z,1003.35
2016-11-19T03:55:28.780Z,1003.37
2016-11-19T03:56:37.419Z,1003.4
2016-11-19T03:57:46.015Z,1003.38
2016-11-19T03:58:54.618Z,1003.42
2016-11-19T04:00:03.261Z,1003.39
2016-11-19T04:01:11.861Z,1003.38
2016-11-19T04:02:20.476Z,1003.43
2016-11-19T04:03:29.096Z,1003.42
2016-11-19T04:04:37.738Z,1003.43
2016-11-19T04:05:46.345Z,1003.41
2016-11-19T04:06:54.967Z,1003.41
2016-11-19T04:08:03.592Z,1003.45
2016-11-19T04:09:12.227Z,1003.43
2016-11-19T04:10:20.852Z,1003.44
2016-11-19T04:11:29.495Z,1003.4
2016-11-19T04:12:38.111Z,1003.35
2016-11-19T04:13:46.732Z,1003.39
2016-11-19T04:14:55.640Z,1003.33
2016-11-19T04:16:04.261Z,1003.37
2016-11-19T04:17:12.896Z,1003.36
2016-11-19T04:18:21.503Z,1003.39
2016-11-19T04:19:30.145Z,1003.34
2016-11-19T04:20:38.745Z,1003.36
2016-11-19T04:21:47.363Z,1003.36
2016-11-19T04:22:55.976Z,1003.37
2016-11-19T04:24:04.585Z,1003.36
2016-11-19T04:25:13.526Z,1003.36
2016-11-19T04:26:22.130Z,1003.38
2016-11-19T04:27:30.736Z,1003.35
2016-11-19T04:28:39.343Z,1003.48
2016-11-19T04:29:47.963Z,1003.48
2016-11-19T04:30:56.582Z,1003.51
2016-11-19T04:32:05.225Z,1003.52
2016-11-19T04:33:13.857Z,1003.51
2016-11-19T04:34:22.487Z,1003.52
2016-11-19T04:35:31.126Z,1003.53
2016-11-19T04:36:39.763Z,1003.51
2016-11-19T04:37:48.383Z,1003.55
2016-11-19T04:38:56.985Z,1003.53
2016-11-19T04:40:05.626Z,1003.56
2016-11-19T04:41:14.264Z,1003.57
2016-11-19T04:42:22.861Z,1003.58
2016-11-19T04:43:31.489Z,1003.56
2016-11-19T04:44:40.114Z,1003.54
2016-11-19T04:45:48.732Z,1003.54
2016-11-19T04:46:57.332Z,1003.55
2016-11-19T04:48:05.949Z,1003.55
2016-11-19T04:49:14.566Z,1003.58
2016-11-19T04:50:23.215Z,1003.63
2016-11-19T04:51:31.829Z,1003.65
2016-11-19T04:52:40.439Z,1003.65
2016-11-19T04:53:49.084Z,1003.62
2016-11-19T04:54:58.025Z,1003.61
2016-11-19T04:56:06.630Z,1003.58
2016-11-19T04:57:15.243Z,1003.6
2016-11-19T04:58:23.870Z,1003.66
2016-11-19T04:59:32.502Z,1003.71
2016-11-19T05:00:41.435Z,1003.69
2016-11-19T05:01:50.044Z,1003.69
2016-11-19T05:02:58.653Z,1003.68
2016-11-19T05:04:07.270Z,1003.74
2016-11-19T05:05:15.893Z,1003.78
2016-11-19T05:06:24.509Z,1003.81
2016-11-19T05:07:33.154Z,1003.81
2016-11-19T05:08:41.783Z,1003.82
2016-11-19T05:09:50.422Z,1003.84
2016-11-19T05:10:59.054Z,1003.89
2016-11-19T05:12:07.689Z,1003.88
2016-11-19T05:13:16.331Z,1003.86
2016-11-19T05:14:24.964Z,1003.82
2016-11-19T05:15:33.610Z,1003.81
2016-11-19T05:16:42.285Z,1003.77
2016-11-19T05:17:50.894Z,1003.78
2016-11-19T05:18:59.522Z,1003.78
2016-11-19T05:20:08.133Z,1003.76
2016-11-19T05:21:16.733Z,1003.73
2016-11-19T05:22:25.352Z,1003.73
2016-11-19T05:23:33.997Z,1003.68
2016-11-19T05:24:42.625Z,1003.6
2016-11-19T05:25:51.549Z,1003.56
2016-11-19T05:27:00.185Z,1003.57
2016-11-19T05:28:08.786Z,1003.52
2016-11-19T05:29:17.418Z,1003.48
2016-11-19T05:30:26.048Z,1003.48
2016-11-19T05:31:34.646Z,1003.47
2016-11-19T05:32:43.247Z,1003.46
2016-11-19T05:33:51.869Z,1003.48
2016-11-19T05:35:00.486Z,1003.48
2016-11-19T05:36:09.115Z,1003.47
2016-11-19T05:37:17.736Z,1003.47
2016-11-19T05:38:26.382Z,1003.43
2016-11-19T05:39:35.030Z,1003.39
2016-11-19T05:40:43.646Z,1003.34
2016-11-19T05:41:52.247Z,1003.33
2016-11-19T05:43:00.890Z,1003.32
2016-11-19T05:44:09.501Z,1003.33
2016-11-19T05:45:18.106Z,1003.34
2016-11-19T05:46:26.769Z,1003.34
2016-11-19T05:47:35.397Z,1003.33
2016-11-19T05:48:44.015Z,1003.29
2016-11-19T05:49:52.637Z,1003.28
2016-11-19T05:51:01.282Z,1003.29
2016-11-19T05:52:09.910Z,1003.3
2016-11-19T05:53:18.545Z,1003.34
2016-11-19T05:54:27.170Z,1003.33
2016-11-19T05:55:35.795Z,1003.3
2016-11-19T05:56:44.715Z,1003.31
2016-11-19T05:57:53.337Z,1003.26
2016-11-19T05:59:01.955Z,1003.33
2016-11-19T06:00:10.581Z,1003.33
2016-11-19T06:01:19.204Z,1003.35
2016-11-19T06:02:27.841Z,1003.35
2016-11-19T06:03:36.471Z,1003.39
2016-11-19T06:04:45.080Z,1003.41
2016-11-19T06:05:53.685Z,1003.41
2016-11-19T06:07:02.297Z,1003.38
2016-11-19T06:08:10.919Z,1003.37
2016-11-19T06:09:19.539Z,1003.34
2016-11-19T06:10:28.140Z,1003.39
2016-11-19T06:11:36.771Z,1003.39
2016-11-19T06:12:45.428Z,1003.37
2016-11-19T06:13:54.053Z,1003.37
2016-11-19T06:15:02.712Z,1003.38
2016-11-19T06:16:11.348Z,1003.43
2016-11-19T06:17:19.946Z,1003.44
2016-11-19T06:18:28.570Z,1003.46
2016-11-19T06:19:37.211Z,1003.45
2016-11-19T06:20:45.812Z,1003.46
2016-11-19T06:21:54.483Z,1003.47
2016-11-19T06:23:03.099Z,1003.46
2016-11-19T06:24:11.717Z,1003.44
2016-11-19T06:25:20.339Z,1003.44
2016-11-19T06:26:28.962Z,1003.43
2016-11-19T06:27:37.633Z,1003.41
2016-11-19T06:28:46.255Z,1003.43
2016-11-19T06:29:54.892Z,1003.43
2016-11-19T06:31:03.495Z,1003.44
2016-11-19T06:32:12.134Z,1003.4
2016-11-19T06:33:20.746Z,1003.41
2016-11-19T06:34:29.359Z,1003.41
2016-11-19T06:35:38.002Z,1003.39
2016-11-19T06:36:46.626Z,1003.39
2016-11-19T06:37:55.253Z,1003.34
2016-11-19T06:39:03.869Z,1003.36
2016-11-19T06:40:12.489Z,1003.33
2016-11-19T06:41:21.085Z,1003.29
2016-11-19T06:42:29.723Z,1003.31
2016-11-19T06:43:38.358Z,1003.32
2016-11-19T06:44:46.971Z,1003.29
2016-11-19T06:45:55.594Z,1003.26
2016-11-19T06:47:04.212Z,1003.26
2016-11-19T06:48:12.834Z,1003.26
2016-11-19T06:49:21.461Z,1003.23
2016-11-19T06:50:30.076Z,1003.2
2016-11-19T06:51:38.692Z,1003.16
2016-11-19T06:52:47.303Z,1003.18
2016-11-19T06:53:55.909Z,1003.21
2016-11-19T06:55:04.542Z,1003.14
2016-11-19T06:56:13.156Z,1003.13
2016-11-19T06:57:21.776Z,1003.18
2016-11-19T06:58:30.406Z,1003.16
2016-11-19T06:59:39.039Z,1003.23
2016-11-19T07:00:47.647Z,1003.23
2016-11-19T07:01:56.256Z,1003.24
2016-11-19T07:03:04.885Z,1003.2
2016-11-19T07:04:13.511Z,1003.21
2016-11-19T07:05:22.170Z,1003.22
2016-11-19T07:06:30.790Z,1003.17
2016-11-19T07:07:39.399Z,1003.17
2016-11-19T07:08:48.023Z,1003.19
2016-11-19T07:09:56.666Z,1003.22
2016-11-19T07:11:05.315Z,1003.23
2016-11-19T07:12:13.951Z,1003.25
2016-11-19T07:13:22.568Z,1003.25
2016-11-19T07:14:31.168Z,1003.25
2016-11-19T07:15:39.817Z,1003.34
2016-11-19T07:16:48.438Z,1003.32
2016-11-19T07:17:57.077Z,1003.35
2016-11-19T07:19:05.684Z,1003.33
2016-11-19T07:20:14.286Z,1003.33
2016-11-19T07:21:22.902Z,1003.41
2016-11-19T07:22:31.526Z,1003.41
2016-11-19T07:23:40.163Z,1003.41
2016-11-19T07:24:48.787Z,1003.41
2016-11-19T07:25:57.412Z,1003.41
2016-11-19T07:27:06.021Z,1003.4
2016-11-19T07:28:14.622Z,1003.42
2016-11-19T07:29:23.239Z,1003.36
2016-11-19T07:30:32.165Z,1003.34
2016-11-19T07:31:40.789Z,1003.34
2016-11-19T07:32:49.410Z,1003.34
2016-11-19T07:33:58.049Z,1003.3
2016-11-19T07:35:06.655Z,1003.28
2016-11-19T07:36:15.279Z,1003.37
2016-11-19T07:37:23.912Z,1003.38
2016-11-19T07:38:32.538Z,1003.36
2016-11-19T07:39:41.159Z,1003.4
2016-11-19T07:40:49.789Z,1003.42
2016-11-19T07:41:58.409Z,1003.49
2016-11-19T07:43:07.081Z,1003.51
2016-11-19T07:44:15.690Z,1003.45
2016-11-19T07:45:24.315Z,1003.45
2016-11-19T07:46:32.970Z,1003.41
2016-11-19T07:47:41.583Z,1003.43
2016-11-19T07:48:50.229Z,1003.4
2016-11-19T07:49:58.849Z,1003.38
2016-11-19T07:51:07.446Z,1003.42
2016-11-19T07:52:16.392Z,1003.45
2016-11-19T07:53:25.020Z,1003.45
2016-11-19T07:54:33.647Z,1003.47
2016-11-19T07:55:42.258Z,1003.48
2016-11-19T07:56:50.859Z,1003.46
2016-11-19T07:57:59.477Z,1003.48
2016-11-19T07:59:08.075Z,1003.45
2016-11-19T08:00:16.700Z,1003.4
2016-11-19T08:01:25.320Z,1003.44
2016-11-19T08:02:33.965Z,1003.38
2016-11-19T08:03:42.604Z,1003.4
2016-11-19T08:04:51.209Z,1003.32
2016-11-19T08:05:59.829Z,1003.3
2016-11-19T08:07:08.455Z,1003.27
2016-11-19T08:08:17.089Z,1003.22
2016-11-19T08:09:25.716Z,1003.28
2016-11-19T08:10:34.334Z,1003.28
2016-11-19T08:11:42.940Z,1003.31
2016-11-19T08:12:51.557Z,1003.33
2016-11-19T08:14:00.190Z,1003.36
2016-11-19T08:15:08.823Z,1003.41
2016-11-19T08:16:17.432Z,1003.38
2016-11-19T08:17:26.040Z,1003.39
2016-11-19T08:18:34.963Z,1003.41
2016-11-19T08:19:43.582Z,1003.43
2016-11-19T08:20:52.227Z,1003.46
2016-11-19T08:22:00.851Z,1003.49
2016-11-19T08:23:09.489Z,1003.49
2016-11-19T08:24:18.144Z,1003.51
2016-11-19T08:25:26.789Z,1003.39
2016-11-19T08:26:35.424Z,1003.48
2016-11-19T08:27:44.033Z,1003.46
2016-11-19T08:28:52.665Z,1003.39
2016-11-19T08:30:01.270Z,1003.43
2016-11-19T08:31:10.183Z,1003.39
2016-11-19T08:32:18.787Z,1003.36
2016-11-19T08:33:27.405Z,1003.37
2016-11-19T08:34:36.029Z,1003.4
2016-11-19T08:35:44.693Z,1003.36
2016-11-19T08:36:53.324Z,1003.34
2016-11-19T08:38:01.942Z,1003.33
2016-11-19T08:39:10.563Z,1003.27
2016-11-19T08:40:19.189Z,1003.3
2016-11-19T08:41:27.827Z,1003.29
2016-11-19T08:42:36.451Z,1003.31
2016-11-19T08:43:45.078Z,1003.3
2016-11-19T08:44:53.690Z,1003.34
2016-11-19T08:46:02.333Z,1003.37
2016-11-19T08:47:10.936Z,1003.39
2016-11-19T08:48:19.586Z,1003.39
2016-11-19T08:49:28.226Z,1003.42
2016-11-19T08:50:37.150Z,1003.45
2016-11-19T08:51:45.796Z,1003.37
2016-11-19T08:52:54.447Z,1003.39
2016-11-19T08:54:03.080Z,1003.36
2016-11-19T08:55:11.731Z,1003.34
2016-11-19T08:56:20.355Z,1003.27
2016-11-19T08:57:28.984Z,1003.26
2016-11-19T08:58:37.628Z,1003.29
2016-11-19T08:59:46.240Z,1003.31
2016-11-19T09:00:54.865Z,1003.22
2016-11-19T09:02:03.508Z,1003.19
2016-11-19T09:03:12.161Z,1003.18
2016-11-19T09:04:20.813Z,1003.25
2016-11-19T09:05:29.428Z,1003.3
2016-11-19T09:06:38.051Z,1003.38
2016-11-19T09:07:46.683Z,1003.35
2016-11-19T09:08:55.315Z,1003.31
2016-11-19T09:10:03.941Z,1003.28
2016-11-19T09:11:12.560Z,1003.34
2016-11-19T09:12:21.201Z,1003.34
2016-11-19T09:13:29.840Z,1003.4
2016-11-19T09:14:38.443Z,1003.38
2016-11-19T09:15:47.065Z,1003.36
2016-11-19T09:16:55.708Z,1003.34
2016-11-19T09:18:04.632Z,1003.38
2016-11-19T09:19:13.233Z,1003.33
2016-11-19T09:20:21.856Z,1003.35
2016-11-19T09:21:30.474Z,1003.37
2016-11-19T09:22:39.092Z,1003.34
2016-11-19T09:23:47.712Z,1003.33
2016-11-19T09:24:56.655Z,1003.35
2016-11-19T09:26:05.285Z,1003.35
2016-11-19T09:27:13.923Z,1003.33
2016-11-19T09:28:22.557Z,1003.28
2016-11-19T09:29:31.196Z,1003.23
2016-11-19T09:30:39.819Z,1003.24
2016-11-19T09:31:48.445Z,1003.25
2016-11-19T09:32:57.083Z,1003.28
2016-11-19T09:34:05.689Z,1003.26
2016-11-19T09:35:14.304Z,1003.24
2016-11-19T09:36:22.945Z,1003.18
2016-11-19T09:37:31.570Z,1003.22
2016-11-19T09:38:40.193Z,1003.2
2016-11-19T09:39:48.809Z,1003.14
2016-11-19T09:40:57.401Z,1003.13
2016-11-19T09:42:06.031Z,1003.16
2016-11-19T09:43:14.650Z,1003.11
2016-11-19T09:44:23.267Z,1003.12
2016-11-19T09:45:31.892Z,1003.05
2016-11-19T09:46:40.526Z,1003.03
2016-11-19T09:47:49.152Z,1003.02
2016-11-19T09:48:57.798Z,1003.03
2016-11-19T09:50:06.429Z,1003.01
2016-11-19T09:51:15.068Z,1003.02
2016-11-19T09:52:23.693Z,1002.99
2016-11-19T09:53:32.310Z,1002.93
2016-11-19T09:54:40.957Z,1002.97
2016-11-19T09:55:49.594Z,1002.96
2016-11-19T09:56:58.198Z,1002.98
2016-11-19T09:58:06.824Z,1002.99
2016-11-19T09:59:15.444Z,1003.02
2016-11-19T10:00:24.067Z,1003.06
2016-11-19T10:01:32.709Z,1003.05
2016-11-19T10:02:41.350Z,1003.05
2016-11-19T10:03:49.997Z,1003.01
2016-11-19T10:04:58.625Z,1002.99
2016-11-19T10:06:07.247Z,1002.96
2016-11-19T10:07:15.892Z,1002.94
2016-11-19T10:08:24.814Z,1002.92
2016-11-19T10:09:33.434Z,1002.93
2016-11-19T10:10:42.079Z,1002.92
2016-11-19T10:11:50.728Z,1002.91
2016-11-19T10:12:59.342Z,1002.89
2016-11-19T10:14:07.995Z,1002.92
2016-11-19T10:15:16.934Z,1002.93
2016-11-19T10:16:25.860Z,1002.89
2016-11-19T10:17:34.496Z,1002.91
2016-11-19T10:18:43.102Z,1002.93
2016-11-19T10:19:51.748Z,1002.94
2016-11-19T10:21:00.398Z,1002.93
2016-11-19T10:22:09.037Z,1002.92
2016-11-19T10:23:17.680Z,1002.93
2016-11-19T10:24:26.283Z,1002.92
2016-11-19T10:25:34.899Z,1002.96
2016-11-19T10:26:43.538Z,1002.96
2016-11-19T10:27:52.163Z,1002.93
2016-11-19T10:29:00.780Z,1002.9
2016-11-19T10:30:09.409Z,1002.95
2016-11-19T10:31:18.061Z,1002.93
2016-11-19T10:32:26.676Z,1002.94
2016-11-19T10:33:35.298Z,1002.96
2016-11-19T10:34:43.925Z,1002.88
2016-11-19T10:35:52.569Z,1002.93
2016-11-19T10:37:01.214Z,1002.9
2016-11-19T10:38:09.853Z,1002.93
2016-11-19T10:39:18.502Z,1002.93
2016-11-19T10:40:27.123Z,1002.89
2016-11-19T10:41:35.770Z,1002.85
2016-11-19T10:42:44.400Z,1002.8
2016-11-19T10:43:53.016Z,1002.75
2016-11-19T10:45:01.662Z,1002.74
2016-11-19T10:46:10.304Z,1002.7
2016-11-19T10:47:18.942Z,1002.65
2016-11-19T10:48:27.567Z,1002.61
2016-11-19T10:49:36.192Z,1002.62
2016-11-19T10:50:44.843Z,1002.6
2016-11-19T10:51:53.477Z,1002.58
2016-11-19T10:53:02.086Z,1002.53
2016-11-19T10:54:10.727Z,1002.52
2016-11-19T10:55:19.339Z,1002.52
2016-11-19T10:56:27.969Z,1002.51
2016-11-19T10:57:36.618Z,1002.5
2016-11-19T10:58:45.239Z,1002.43
2016-11-19T10:59:53.878Z,1002.41
2016-11-19T11:01:02.520Z,1002.38
2016-11-19T11:02:11.153Z,1002.38
2016-11-19T11:03:19.773Z,1002.39
2016-11-19T11:04:28.420Z,1002.4
2016-11-19T11:05:37.058Z,1002.39
2016-11-19T11:06:45.662Z,1002.37
2016-11-19T11:07:54.300Z,1002.29
2016-11-19T11:09:02.983Z,1002.21
2016-11-19T11:10:11.621Z,1002.14
2016-11-19T11:11:20.259Z,1002.11
2016-11-19T11:12:28.880Z,1002.08
2016-11-19T11:13:37.513Z,1002.07
2016-11-19T11:14:46.134Z,1002.07
2016-11-19T11:15:54.751Z,1002.05
2016-11-19T11:17:03.414Z,1002.08
2016-11-19T11:18:12.043Z,1002.04
2016-11-19T11:19:20.668Z,1002.02
2016-11-19T11:20:29.326Z,1001.99
2016-11-19T11:21:37.949Z,1002.05
2016-11-19T11:22:46.581Z,1002.1
2016-11-19T11:23:55.198Z,1002.02
2016-11-19T11:25:03.850Z,1002.02
2016-11-19T11:26:12.798Z,1002.01
2016-11-19T11:27:21.411Z,1001.95
2016-11-19T11:28:30.038Z,1001.9
2016-11-19T11:29:38.658Z,1001.92
2016-11-19T11:30:47.296Z,1001.9
2016-11-19T11:31:55.920Z,1001.88
2016-11-19T11:33:04.546Z,1001.84
2016-11-19T11:34:13.167Z,1001.89
2016-11-19T11:35:21.808Z,1001.84
2016-11-19T11:36:30.435Z,1001.86
2016-11-19T11:37:39.119Z,1001.78
2016-11-19T11:38:47.752Z,1001.75
2016-11-19T11:39:56.398Z,1001.75
2016-11-19T11:41:05.043Z,1001.75
2016-11-19T11:42:13.694Z,1001.74
2016-11-19T11:43:22.331Z,1001.76
2016-11-19T11:44:31.003Z,1001.76
2016-11-19T11:45:39.628Z,1001.75
2016-11-19T11:46:48.279Z,1001.75
2016-11-19T11:47:56.912Z,1001.79
2016-11-19T11:49:05.519Z,1001.81
2016-11-19T11:50:14.132Z,1001.83
2016-11-19T11:51:22.783Z,1001.89
2016-11-19T11:52:31.422Z,1001.88
2016-11-19T11:53:40.046Z,1001.91
2016-11-19T11:54:48.671Z,1001.9
2016-11-19T11:55:57.310Z,1001.91
2016-11-19T11:57:05.909Z,1001.9
2016-11-19T11:58:14.531Z,1001.84
2016-11-19T11:59:23.152Z,1001.83
2016-11-19T12:00:31.804Z,1001.78
2016-11-19T12:01:40.436Z,1001.72
2016-11-19T12:02:49.045Z,1001.66
2016-11-19T12:03:57.683Z,1001.72
2016-11-19T12:05:06.314Z,1001.72
2016-11-19T12:06:14.958Z,1001.72
2016-11-19T12:07:23.586Z,1001.76
2016-11-19T12:08:32.202Z,1001.81
2016-11-19T12:09:40.834Z,1001.74
2016-11-19T12:10:49.441Z,1001.72
2016-11-19T12:11:58.090Z,1001.71
2016-11-19T12:13:06.707Z,1001.73
2016-11-19T12:14:15.334Z,1001.76
2016-11-19T12:15:23.949Z,1001.78
2016-11-19T12:16:32.568Z,1001.82
2016-11-19T12:17:41.189Z,1001.83
2016-11-19T12:18:50.094Z,1001.81
2016-11-19T12:19:58.742Z,1001.85
2016-11-19T12:21:07.378Z,1001.83
2016-11-19T12:22:16.004Z,1001.84
2016-11-19T12:23:24.625Z,1001.86
2016-11-19T12:24:33.266Z,1001.85
2016-11-19T12:25:41.914Z,1001.82
2016-11-19T12:26:50.551Z,1001.84
2016-11-19T12:27:59.181Z,1001.83
2016-11-19T12:29:07.800Z,1001.82
2016-11-19T12:30:16.440Z,1001.81
2016-11-19T12:31:25.085Z,1001.82
2016-11-19T12:32:33.713Z,1001.79
2016-11-19T12:33:42.336Z,1001.8
2016-11-19T12:34:50.956Z,1001.8
2016-11-19T12:35:59.577Z,1001.79
2016-11-19T12:37:08.202Z,1001.77
2016-11-19T12:38:16.849Z,1001.72
2016-11-19T12:39:25.476Z,1001.69
2016-11-19T12:40:34.116Z,1001.63
2016-11-19T12:41:42.758Z,1001.58
2016-11-19T12:42:51.408Z,1001.54
2016-11-19T12:44:00.043Z,1001.53
2016-11-19T12:45:08.676Z,1001.46
2016-11-19T12:46:17.292Z,1001.38
2016-11-19T12:47:25.917Z,1001.36
2016-11-19T12:48:34.552Z,1001.25
2016-11-19T12:49:43.173Z,1001.2
2016-11-19T12:50:51.805Z,1001.22
2016-11-19T12:52:00.423Z,1001.21
2016-11-19T12:53:09.024Z,1001.22
2016-11-19T12:54:17.658Z,1001.32
2016-11-19T12:55:26.264Z,1001.38
2016-11-19T12:56:34.931Z,1001.4
2016-11-19T12:57:43.574Z,1001.46
2016-11-19T12:58:52.227Z,1001.46
2016-11-19T13:00:00.869Z,1001.46
2016-11-19T13:01:09.523Z,1001.46
2016-11-19T13:02:18.154Z,1001.49
2016-11-19T13:03:26.782Z,1001.51
2016-11-19T13:04:35.410Z,1001.46
2016-11-19T13:05:44.042Z,1001.45
2016-11-19T13:06:52.672Z,1001.39
2016-11-19T13:08:01.292Z,1001.35
2016-11-19T13:09:09.918Z,1001.33
2016-11-19T13:10:18.555Z,1001.32
2016-11-19T13:11:27.181Z,1001.36
2016-11-19T13:12:36.123Z,1001.37
2016-11-19T13:13:44.765Z,1001.41
2016-11-19T13:14:53.373Z,1001.36
2016-11-19T13:16:02.042Z,1001.42
2016-11-19T13:17:10.666Z,1001.39
2016-11-19T13:18:19.286Z,1001.42
2016-11-19T13:19:27.907Z,1001.37
2016-11-19T13:20:36.549Z,1001.34
2016-11-19T13:21:45.200Z,1001.29
2016-11-19T13:22:53.871Z,1001.3
2016-11-19T13:24:02.509Z,1001.25
2016-11-19T13:25:11.162Z,1001.3
2016-11-19T13:26:19.810Z,1001.26
2016-11-19T13:27:28.433Z,1001.28
2016-11-19T13:28:37.069Z,1001.29
2016-11-19T13:29:45.686Z,1001.31
2016-11-19T13:30:54.321Z,1001.3
2016-11-19T13:32:02.941Z,1001.3
2016-11-19T13:33:11.583Z,1001.35
2016-11-19T13:34:20.207Z,1001.32
2016-11-19T13:35:28.857Z,1001.31
2016-11-19T13:36:37.488Z,1001.27
2016-11-19T13:37:46.091Z,1001.3
2016-11-19T13:38:54.742Z,1001.31
2016-11-19T13:40:03.367Z,1001.36
2016-11-19T13:41:11.985Z,1001.33
2016-11-19T13:42:20.619Z,1001.37
2016-11-19T13:43:29.252Z,1001.37
2016-11-19T13:44:37.898Z,1001.4
2016-11-19T13:45:46.532Z,1001.42
2016-11-19T13:46:55.162Z,1001.42
2016-11-19T13:48:03.790Z,1001.41
2016-11-19T13:49:12.433Z,1001.36
2016-11-19T13:50:21.072Z,1001.38
2016-11-19T13:51:29.725Z,1001.34
2016-11-19T13:52:38.371Z,1001.35